Stove Pipe Wells, California
Current Conditions -  °F | °C
As of 8:56 PM on Wednesday 22 Oct 2014 (Local Time) from KNID Reporting Station
Few Clouds Few Clouds  
Wind Chill: 19°   Ceiling: Unl
Heat Index: 19°   Visibility: 10mi
Dew Point: -2°   Wind: 9mph
Humidity: 24%   Direction: 210°SSW
Pressure: 30.01"   Gusts: NA
Location:  36.3785°N, 117.161°W
Report Text: KNID 230356Z 21008KT 10SM FEW270 19/M02 A3001 RMK AO2 SLP154 T01941017 $
Loading
Personal Weather Stations






























Interactive Weather Map
Tropical Storm Tracking
New forecast layout! Learn more

10-Day Weather Forecast

Advertisements
Track Severe Weather on mobile